Ana Sayfa
METAR-TAF:

METAR-TAF

Havaalanları :

Mahikeng, Güney Afrika

Enlem: 25-47S, Boylam: 025-32E, yükseklik: 1281 m

Güncel hava durumu gözlemi

Rapor saat 08:00 UTC de 28 dakika önce yapıldı.
Rüzgar kuzeydan 12 kt
Sıcaklık 24°C
Nem 20%
Basınç 1027 hPa
Görüş mesafesi 10 km veya daha fazla
1500 m altında bulut yok ve kümülonimbus yok

METAR: FAMM 140800Z 35012KT CAVOK 24/00 Q1027 NOSIG

Saat: 10:28 (08:28 UTC)

Tahmin

Rapor saat 06:00 UTC de 2 saat ve 28 dakika önce yapıldı.
Ayın 14'si saat 07 UTC'den ayın 14'si saat 18 UTC'ye kadar geçerli Tahmin
Rüzgar kuzey/kuzeydoğudan 10 kt
Görüş mesafesi 10 km veya daha fazla
1500 m altında bulut yok ve kümülonimbus yok
Dönüşüyor
ayın 14'si saat 09 UTC'den ayın 14'si saat 11 UTC'ye kadar
Rüzgar kuzey/kuzeybatıdan 10 kt

TAF: FAMM 140600Z 1407/1418 02010KT CAVOK BECMG 1409/1411 34010KT TX28/1412Z TN17/1418Z

4.000'den fazla havaalanı için hava durumu gözlemleri ve tahminleri (METAR ve TAF raporları).

Kullanılabilir istasyonlar harita üzerinde sarı ve kırmızı noktalarla gösterilir.

İstasyonun adını görmek için fareyi noktanın üzerinde gezdirin.

Sonrasında hava gözlem ve tahminlerini görmek için tıklayın.

Haritayı değiştirmek için: yaklaştırmak için siyah artı işaretli yeşil düğmeye ve uzaklaştırmak için de eksi işaretli düğmeye hızla tıklayın; bitişik haritalar için yeşil okları kullanın.


METAR-TAF: